createdAt,value
2023-05-17T00:00:57.777Z,88.67
2023-05-17T00:04:55.714Z,88.59
2023-05-17T00:08:53.720Z,88.59
2023-05-17T00:12:51.824Z,88.77
2023-05-17T00:16:49.746Z,88.85
2023-05-17T00:20:47.700Z,89.02
2023-05-17T00:24:45.724Z,89.13
2023-05-17T00:28:43.705Z,89.19
2023-05-17T00:32:41.766Z,89.38
2023-05-17T00:36:32.851Z,89.78
2023-05-17T00:40:31.684Z,90.02
2023-05-17T00:44:29.667Z,90.27
2023-05-17T00:48:27.960Z,90.41
2023-05-17T00:52:25.761Z,90.64
2023-05-17T00:56:23.677Z,90.66
2023-05-17T01:00:22.627Z,90.50
2023-05-17T01:04:20.811Z,90.46
2023-05-17T01:08:18.655Z,90.52
2023-05-17T01:12:26.681Z,90.61
2023-05-17T01:16:40.688Z,90.52
2023-05-17T01:20:53.663Z,90.49
2023-05-17T01:25:05.597Z,90.64
2023-05-17T01:29:07.638Z,90.61
2023-05-17T01:33:05.722Z,90.70
2023-05-17T01:37:05.702Z,90.64
2023-05-17T01:41:30.618Z,90.61
2023-05-17T01:45:53.655Z,90.67
2023-05-17T01:49:54.581Z,90.71
2023-05-17T01:54:02.700Z,90.66
2023-05-17T01:58:05.627Z,90.51
2023-05-17T02:02:04.584Z,90.28
2023-05-17T02:06:02.614Z,90.25
2023-05-17T02:10:00.600Z,90.31
2023-05-17T02:13:58.581Z,90.35
2023-05-17T02:17:56.603Z,90.31
2023-05-17T02:21:54.567Z,90.26
2023-05-17T02:25:53.616Z,90.15
2023-05-17T02:29:51.607Z,89.93
2023-05-17T02:33:49.634Z,89.88
2023-05-17T02:37:48.593Z,89.85
2023-05-17T02:41:46.567Z,89.79
2023-05-17T02:45:44.576Z,89.61
2023-05-17T02:49:42.621Z,89.62
2023-05-17T02:53:40.550Z,89.56
2023-05-17T02:57:38.619Z,89.87
2023-05-17T03:01:36.530Z,89.85
2023-05-17T03:05:34.568Z,90.10
2023-05-17T03:09:32.526Z,90.12
2023-05-17T03:13:30.577Z,90.16
2023-05-17T03:17:21.605Z,90.21
2023-05-17T03:21:19.602Z,89.78
2023-05-17T03:25:50.503Z,89.74
2023-05-17T03:29:48.495Z,90.15
2023-05-17T03:33:47.655Z,90.38
2023-05-17T03:37:45.526Z,90.55
2023-05-17T03:41:43.510Z,90.59
2023-05-17T03:45:41.517Z,90.62
2023-05-17T03:49:41.485Z,90.58
2023-05-17T03:53:39.502Z,90.51
2023-05-17T03:57:37.451Z,90.53
2023-05-17T04:01:35.519Z,90.50
2023-05-17T04:05:34.452Z,90.41
2023-05-17T04:09:32.473Z,90.29
2023-05-17T04:13:30.531Z,90.24
2023-05-17T04:17:28.506Z,90.23
2023-05-17T04:21:26.446Z,90.18
2023-05-17T04:25:25.473Z,90.11
2023-05-17T04:29:23.411Z,89.83
2023-05-17T04:33:23.510Z,89.46
2023-05-17T04:37:21.447Z,89.28
2023-05-17T04:41:22.448Z,89.09
2023-05-17T04:45:20.430Z,88.75
2023-05-17T04:49:18.432Z,88.36
2023-05-17T04:53:17.396Z,88.11
2023-05-17T04:57:15.417Z,87.38
2023-05-17T05:01:17.410Z,86.22
2023-05-17T05:05:16.526Z,84.39
2023-05-17T05:09:15.427Z,84.15
2023-05-17T05:13:13.404Z,84.18
2023-05-17T05:17:11.371Z,84.27
2023-05-17T05:21:11.388Z,82.81
2023-05-17T05:25:10.390Z,82.19
2023-05-17T05:29:22.375Z,81.69
2023-05-17T05:33:20.460Z,80.88
2023-05-17T05:37:18.707Z,80.49
2023-05-17T05:41:16.372Z,80.02
2023-05-17T05:45:15.981Z,79.93
2023-05-17T05:49:13.338Z,80.36
2023-05-17T05:53:18.657Z,80.92
2023-05-17T05:57:19.543Z,81.45
2023-05-17T06:00:57.526Z,82.01
2023-05-17T06:04:29.713Z,82.05
2023-05-17T06:08:00.614Z,81.62
2023-05-17T06:11:25.196Z,81.67
2023-05-17T06:14:49.225Z,80.93
2023-05-17T06:18:13.270Z,80.64
2023-05-17T06:21:38.118Z,80.70
2023-05-17T06:25:02.045Z,80.35
2023-05-17T06:28:26.454Z,79.59
2023-05-17T06:31:50.508Z,79.71
2023-05-17T06:35:14.421Z,80.05
2023-05-17T06:38:38.267Z,79.96
2023-05-17T06:42:02.831Z,80.47
2023-05-17T06:45:31.357Z,80.96
2023-05-17T06:48:55.709Z,80.72
2023-05-17T06:52:19.753Z,80.20
2023-05-17T06:55:45.370Z,80.43
2023-05-17T06:59:09.246Z,80.68
2023-05-17T07:02:34.744Z,80.52
2023-05-17T07:06:01.539Z,81.01
2023-05-17T07:09:25.591Z,81.44
2023-05-17T07:12:49.951Z,81.70
2023-05-17T07:16:14.051Z,82.31
2023-05-17T07:19:38.058Z,82.82
2023-05-17T07:23:02.113Z,83.70
2023-05-17T07:26:27.301Z,83.87
2023-05-17T07:29:51.443Z,84.25
2023-05-17T07:33:15.417Z,83.43
2023-05-17T07:36:39.366Z,83.11
2023-05-17T07:40:05.226Z,82.83
2023-05-17T07:43:29.349Z,82.54
2023-05-17T07:46:53.292Z,82.42
2023-05-17T07:50:17.453Z,82.87
2023-05-17T07:53:41.864Z,82.62
2023-05-17T07:57:05.831Z,81.75
2023-05-17T08:00:29.910Z,82.33
2023-05-17T08:03:54.064Z,82.28
2023-05-17T08:07:17.976Z,82.35
2023-05-17T08:10:43.356Z,82.15
2023-05-17T08:14:07.323Z,82.00
2023-05-17T08:17:31.393Z,82.21
2023-05-17T08:20:55.254Z,82.27
2023-05-17T08:24:19.294Z,82.87
2023-05-17T08:27:43.520Z,83.99
2023-05-17T08:31:07.703Z,83.56
2023-05-17T08:34:31.950Z,83.67
2023-05-17T08:37:55.893Z,84.13
2023-05-17T08:41:20.870Z,84.31
2023-05-17T08:44:45.444Z,84.04
2023-05-17T08:48:09.452Z,84.10
2023-05-17T08:51:33.899Z,84.11
2023-05-17T08:54:58.227Z,84.69
2023-05-17T08:58:26.941Z,84.84
2023-05-17T09:01:54.144Z,84.49
2023-05-17T09:05:18.368Z,84.67
2023-05-17T09:08:42.934Z,84.96
2023-05-17T09:12:07.304Z,85.31
2023-05-17T09:15:34.339Z,85.63
2023-05-17T09:18:59.648Z,85.91
2023-05-17T09:22:23.888Z,86.02
2023-05-17T09:25:49.257Z,85.76
2023-05-17T09:29:13.907Z,86.04
2023-05-17T09:32:45.369Z,85.60
2023-05-17T09:36:20.510Z,85.84
2023-05-17T09:39:46.274Z,86.09
2023-05-17T09:43:11.470Z,86.18
2023-05-17T09:46:36.275Z,85.94
2023-05-17T09:50:03.747Z,86.17
2023-05-17T09:53:29.108Z,86.46
2023-05-17T09:56:56.304Z,86.30
2023-05-17T10:00:22.286Z,86.07
2023-05-17T10:03:46.705Z,86.23
2023-05-17T10:07:10.813Z,85.99
2023-05-17T10:10:34.728Z,86.28
2023-05-17T10:14:12.778Z,87.01
2023-05-17T10:17:39.278Z,86.96
2023-05-17T10:21:04.020Z,87.12
2023-05-17T10:24:30.641Z,87.37
2023-05-17T10:27:54.652Z,87.68
2023-05-17T10:31:18.903Z,87.98
2023-05-17T10:34:43.498Z,88.09
2023-05-17T10:38:07.516Z,88.18
2023-05-17T10:41:36.277Z,88.71
2023-05-17T10:45:02.655Z,88.93
2023-05-17T10:48:31.144Z,89.14
2023-05-17T10:51:55.532Z,89.25
2023-05-17T10:55:21.507Z,89.19
2023-05-17T10:58:45.815Z,89.11
2023-05-17T11:02:12.853Z,88.96
2023-05-17T11:05:38.048Z,88.59
2023-05-17T11:09:17.814Z,88.85
2023-05-17T11:12:43.853Z,88.81
2023-05-17T11:16:11.365Z,88.90
2023-05-17T11:19:35.494Z,89.10
2023-05-17T11:22:59.470Z,89.60
2023-05-17T11:26:30.564Z,89.59
2023-05-17T11:29:55.952Z,90.09
2023-05-17T11:33:33.046Z,90.22
2023-05-17T11:36:57.973Z,90.29
2023-05-17T11:40:29.243Z,90.09
2023-05-17T11:43:53.824Z,89.82
2023-05-17T11:47:18.471Z,89.61
2023-05-17T11:50:43.868Z,89.54
2023-05-17T11:54:07.736Z,88.68
2023-05-17T11:57:33.077Z,88.45
2023-05-17T12:00:58.560Z,89.14
2023-05-17T12:04:28.180Z,89.13
2023-05-17T12:07:53.068Z,89.46
2023-05-17T12:11:17.943Z,89.45
2023-05-17T12:14:44.910Z,89.06
2023-05-17T12:18:09.076Z,89.17
2023-05-17T12:21:33.018Z,89.64
2023-05-17T12:24:57.210Z,89.51
2023-05-17T12:28:22.920Z,89.45
2023-05-17T12:31:51.179Z,89.46
2023-05-17T12:35:15.282Z,89.60
2023-05-17T12:38:41.556Z,89.57
2023-05-17T12:42:05.845Z,89.71
2023-05-17T12:45:29.836Z,89.86
2023-05-17T12:48:55.446Z,89.61
2023-05-17T12:52:19.429Z,89.53
2023-05-17T12:55:43.543Z,89.71
2023-05-17T12:59:17.329Z,90.19
2023-05-17T13:02:44.498Z,90.50
2023-05-17T13:06:11.293Z,90.44
2023-05-17T13:09:36.536Z,90.46
2023-05-17T13:13:01.542Z,90.39
2023-05-17T13:16:31.497Z,90.15
2023-05-17T13:19:58.040Z,90.10
2023-05-17T13:23:22.458Z,89.85
2023-05-17T13:26:46.425Z,89.75
2023-05-17T13:30:11.058Z,89.34
2023-05-17T13:33:57.209Z,88.80
2023-05-17T13:37:54.945Z,89.16
2023-05-17T13:41:52.875Z,89.80
2023-05-17T13:45:50.909Z,89.91
2023-05-17T13:49:49.865Z,89.74
2023-05-17T13:53:47.842Z,89.93
2023-05-17T13:57:45.880Z,89.99
2023-05-17T14:01:43.851Z,89.93
2023-05-17T14:05:42.906Z,90.07
2023-05-17T14:09:40.861Z,89.85
2023-05-17T14:13:38.907Z,89.71
2023-05-17T14:17:36.850Z,90.42
2023-05-17T14:21:34.832Z,90.90
2023-05-17T14:25:32.974Z,91.31
2023-05-17T14:29:30.814Z,91.31
2023-05-17T14:33:28.846Z,91.49
2023-05-17T14:37:28.856Z,91.73
2023-05-17T14:41:26.813Z,91.90
2023-05-17T14:45:24.854Z,92.07
2023-05-17T14:49:23.124Z,91.68
2023-05-17T14:53:20.821Z,91.44
2023-05-17T14:57:18.769Z,91.98
2023-05-17T15:01:16.840Z,91.92
2023-05-17T15:05:14.841Z,91.95
2023-05-17T15:09:12.810Z,91.97
2023-05-17T15:13:10.796Z,91.80
2023-05-17T15:17:08.862Z,91.47
2023-05-17T15:21:06.768Z,91.20
2023-05-17T15:25:04.762Z,91.23
2023-05-17T15:29:35.745Z,90.95
2023-05-17T15:33:33.893Z,90.55
2023-05-17T15:37:31.715Z,90.48
2023-05-17T15:41:33.932Z,90.43
2023-05-17T15:45:31.922Z,90.56
2023-05-17T15:49:29.841Z,90.53
2023-05-17T15:53:27.806Z,90.36
2023-05-17T15:57:25.731Z,90.61
2023-05-17T16:01:23.709Z,90.63
2023-05-17T16:05:21.749Z,90.54
2023-05-17T16:09:20.693Z,90.51
2023-05-17T16:13:18.740Z,90.62
2023-05-17T16:17:16.692Z,90.46
2023-05-17T16:21:18.811Z,90.48
2023-05-17T16:25:16.693Z,90.53
2023-05-17T16:29:14.745Z,90.57
2023-05-17T16:33:12.754Z,90.80
2023-05-17T16:37:10.687Z,91.16
2023-05-17T16:41:09.687Z,91.40
2023-05-17T16:45:07.927Z,91.27
2023-05-17T16:49:05.672Z,91.32
2023-05-17T16:53:03.711Z,91.69
2023-05-17T16:57:01.792Z,92.26
2023-05-17T17:00:59.692Z,92.48
2023-05-17T17:04:57.694Z,92.32
2023-05-17T17:08:55.688Z,92.34
2023-05-17T17:12:53.640Z,92.29
2023-05-17T17:16:51.649Z,92.36
2023-05-17T17:20:49.602Z,92.60
2023-05-17T17:24:48.749Z,92.81
2023-05-17T17:28:46.645Z,93.15
2023-05-17T17:32:44.749Z,93.21
2023-05-17T17:36:42.610Z,93.23
2023-05-17T17:40:40.593Z,93.26
2023-05-17T17:44:38.617Z,93.29
2023-05-17T17:48:36.608Z,93.39
2023-05-17T17:52:34.592Z,93.48
2023-05-17T17:56:32.679Z,93.47
2023-05-17T18:00:30.687Z,93.45
2023-05-17T18:04:28.665Z,93.44
2023-05-17T18:08:26.589Z,93.28
2023-05-17T18:12:24.602Z,92.91
2023-05-17T18:16:22.723Z,93.10
2023-05-17T18:20:20.708Z,93.24
2023-05-17T18:24:18.571Z,93.45
2023-05-17T18:28:18.273Z,93.29
2023-05-17T18:32:20.591Z,93.52
2023-05-17T18:36:18.649Z,93.74
2023-05-17T18:40:16.554Z,93.92
2023-05-17T18:44:15.512Z,94.00
2023-05-17T18:48:13.718Z,93.96
2023-05-17T18:52:11.525Z,93.96
2023-05-17T18:56:09.531Z,94.02
2023-05-17T19:00:07.553Z,94.00
2023-05-17T19:04:05.660Z,93.76
2023-05-17T19:08:04.506Z,93.56
2023-05-17T19:12:02.564Z,93.57
2023-05-17T19:16:00.547Z,93.70
2023-05-17T19:19:58.565Z,93.84
2023-05-17T19:23:56.552Z,93.85
2023-05-17T19:27:54.517Z,93.82
2023-05-17T19:31:52.593Z,93.70
2023-05-17T19:35:50.484Z,93.49
2023-05-17T19:39:48.558Z,93.17
2023-05-17T19:43:46.473Z,92.91
2023-05-17T19:47:46.552Z,92.92
2023-05-17T19:51:44.468Z,92.89
2023-05-17T19:55:43.568Z,93.16
2023-05-17T19:59:41.466Z,93.29
2023-05-17T20:03:39.613Z,93.22
2023-05-17T20:07:37.539Z,93.40
2023-05-17T20:11:35.493Z,93.43
2023-05-17T20:15:33.602Z,93.48
2023-05-17T20:19:31.529Z,93.57
2023-05-17T20:23:29.452Z,93.63
2023-05-17T20:27:27.526Z,93.70
2023-05-17T20:31:25.454Z,93.59
2023-05-17T20:35:23.492Z,93.75
2023-05-17T20:39:22.345Z,93.77
2023-05-17T20:43:23.439Z,93.81
2023-05-17T20:47:21.397Z,93.95
2023-05-17T20:51:19.461Z,93.90
2023-05-17T20:55:17.387Z,93.88
2023-05-17T20:59:15.444Z,93.76
2023-05-17T21:03:13.471Z,93.65
2023-05-17T21:07:11.396Z,93.65
2023-05-17T21:11:10.393Z,93.56
2023-05-17T21:19:12.383Z,93.50
2023-05-17T21:23:10.376Z,93.34
2023-05-17T21:27:08.411Z,93.15
2023-05-17T21:31:38.454Z,93.09
2023-05-17T21:35:36.372Z,93.10
2023-05-17T21:39:34.346Z,93.07
2023-05-17T21:43:32.320Z,92.94
2023-05-17T21:47:30.373Z,92.84
2023-05-17T21:51:28.345Z,92.81
2023-05-17T21:55:28.235Z,92.71
2023-05-17T21:59:28.394Z,92.59
2023-05-17T22:03:26.385Z,92.45
2023-05-17T22:07:26.276Z,92.46
2023-05-17T22:11:24.372Z,92.31
2023-05-17T22:15:22.266Z,92.25
2023-05-17T22:19:21.405Z,92.22
2023-05-17T22:23:22.341Z,92.06
2023-05-17T22:27:20.279Z,92.03
2023-05-17T22:31:21.412Z,91.98
2023-05-17T22:35:19.398Z,92.01
2023-05-17T22:39:17.274Z,92.00
2023-05-17T22:43:15.332Z,91.95
2023-05-17T22:47:13.349Z,91.95
2023-05-17T22:51:11.274Z,92.12
2023-05-17T22:55:09.253Z,92.16
2023-05-17T22:59:07.269Z,91.99
2023-05-17T23:03:05.262Z,92.31
2023-05-17T23:07:08.338Z,92.23
2023-05-17T23:11:06.286Z,92.55
2023-05-17T23:15:04.253Z,93.17
2023-05-17T23:19:02.238Z,93.60
2023-05-17T23:23:00.271Z,93.74
2023-05-17T23:26:58.237Z,93.68
2023-05-17T23:30:58.267Z,92.75
2023-05-17T23:34:56.201Z,92.19
2023-05-17T23:38:54.238Z,91.63
2023-05-17T23:42:52.210Z,91.47
2023-05-17T23:46:51.231Z,91.21
2023-05-17T23:50:49.205Z,90.89
2023-05-17T23:55:08.235Z,90.76
2023-05-17T23:59:06.160Z,90.66
